createdAt,value
2019-06-07T00:01:50.316Z,73.30
2019-06-07T00:02:50.801Z,73.09
2019-06-07T00:03:51.280Z,73.30
2019-06-07T00:04:51.766Z,73.30
2019-06-07T00:05:52.280Z,73.30
2019-06-07T00:06:52.798Z,73.19
2019-06-07T00:07:53.297Z,72.99
2019-06-07T00:08:53.787Z,72.78
2019-06-07T00:09:54.307Z,72.89
2019-06-07T00:10:54.799Z,72.99
2019-06-07T00:11:55.279Z,72.78
2019-06-07T00:12:55.807Z,72.99
2019-06-07T00:13:56.300Z,72.99
2019-06-07T00:14:56.781Z,72.99
2019-06-07T00:15:57.285Z,72.99
2019-06-07T00:16:57.801Z,72.89
2019-06-07T00:17:58.277Z,73.23
2019-06-07T00:18:58.766Z,73.02
2019-06-07T00:19:59.258Z,73.33
2019-06-07T00:20:59.766Z,73.30
2019-06-07T00:22:17.622Z,73.50
2019-06-07T00:23:08.547Z,73.63
2019-06-07T00:24:13.083Z,73.13
2019-06-07T00:25:22.830Z,73.33
2019-06-07T00:26:22.594Z,73.02
2019-06-07T00:27:23.095Z,73.63
2019-06-07T00:28:23.582Z,73.02
2019-06-07T00:29:24.072Z,73.87
2019-06-07T00:30:50.705Z,73.02
2019-06-07T00:31:31.049Z,73.23
2019-06-07T00:32:31.519Z,73.26
2019-06-07T00:33:32.021Z,73.36
2019-06-07T00:34:32.501Z,73.57
2019-06-07T00:35:32.959Z,73.67
2019-06-07T00:36:33.484Z,73.36
2019-06-07T00:37:34.021Z,73.67
2019-06-07T00:38:34.495Z,73.47
2019-06-07T00:39:34.966Z,73.36
2019-06-07T00:40:35.475Z,73.57
2019-06-07T00:41:35.981Z,73.36
2019-06-07T00:42:36.493Z,73.57
2019-06-07T00:43:37.101Z,73.57
2019-06-07T00:44:37.607Z,73.57
2019-06-07T00:45:38.081Z,74.08
2019-06-07T00:46:38.579Z,73.67
2019-06-07T00:47:39.088Z,73.77
2019-06-07T00:48:39.598Z,73.87
2019-06-07T00:49:46.805Z,73.77
2019-06-07T00:50:47.278Z,73.87
2019-06-07T00:51:51.373Z,73.47
2019-06-07T00:53:14.549Z,73.71
2019-06-07T00:53:58.858Z,73.97
2019-06-07T00:54:59.361Z,73.91
2019-06-07T00:56:00.846Z,73.77
2019-06-07T00:57:01.358Z,74.01
2019-06-07T00:58:02.524Z,73.77
2019-06-07T00:59:11.110Z,73.87
2019-06-07T01:00:09.590Z,74.01
2019-06-07T01:01:13.106Z,73.80
2019-06-07T01:02:16.109Z,74.21
2019-06-07T01:03:18.163Z,73.91
2019-06-07T01:04:23.113Z,73.80
2019-06-07T01:05:31.317Z,74.01
2019-06-07T01:06:32.641Z,74.01
2019-06-07T01:07:36.294Z,74.01
2019-06-07T01:08:36.781Z,74.11
2019-06-07T01:09:37.253Z,74.01
2019-06-07T01:10:53.102Z,74.01
2019-06-07T01:11:44.250Z,74.15
2019-06-07T01:12:44.761Z,73.91
2019-06-07T01:13:45.259Z,74.25
2019-06-07T01:16:00.781Z,73.94
2019-06-07T01:17:22.459Z,74.65
2019-06-07T01:18:35.963Z,74.76
2019-06-07T01:19:16.434Z,74.45
2019-06-07T01:20:19.165Z,74.96
2019-06-07T01:21:36.278Z,74.35
2019-06-07T01:22:36.781Z,74.04
2019-06-07T01:24:43.742Z,74.86
2019-06-07T01:25:44.221Z,74.15
2019-06-07T01:26:45.579Z,74.15
2019-06-07T01:27:46.221Z,74.04
2019-06-07T01:28:46.701Z,74.08
2019-06-07T01:29:47.197Z,74.49
2019-06-07T01:30:47.728Z,74.49
2019-06-07T01:31:48.281Z,74.38
2019-06-07T01:32:48.767Z,74.38
2019-06-07T01:33:51.145Z,74.38
2019-06-07T01:34:51.958Z,74.28
2019-06-07T01:35:52.446Z,74.25
2019-06-07T01:36:54.069Z,74.38
2019-06-07T01:37:54.550Z,74.18
2019-06-07T01:38:55.046Z,74.49
2019-06-07T01:39:55.542Z,74.38
2019-06-07T01:40:56.018Z,74.58
2019-06-07T01:41:56.513Z,74.28
2019-06-07T01:42:56.999Z,74.49
2019-06-07T01:43:57.478Z,74.99
2019-06-07T01:44:58.020Z,74.58
2019-06-07T01:45:58.501Z,74.49
2019-06-07T01:46:59.007Z,74.38
2019-06-07T01:47:59.482Z,74.28
2019-06-07T01:48:59.961Z,74.69
2019-06-07T01:50:00.467Z,74.69
2019-06-07T01:51:00.978Z,74.49
2019-06-07T01:52:01.557Z,74.28
2019-06-07T01:53:02.057Z,74.38
2019-06-07T01:54:48.572Z,74.58
2019-06-07T01:55:09.059Z,74.83
2019-06-07T01:56:09.546Z,74.83
2019-06-07T01:57:30.555Z,74.83
2019-06-07T01:58:17.046Z,74.93
2019-06-07T01:59:17.840Z,74.90
2019-06-07T02:00:21.643Z,75.03
2019-06-07T02:01:26.616Z,74.83
2019-06-07T02:02:31.896Z,74.83
2019-06-07T02:03:33.477Z,74.93
2019-06-07T02:04:34.147Z,74.83
2019-06-07T02:05:34.622Z,75.03
2019-06-07T02:06:35.103Z,74.73
2019-06-07T02:07:35.614Z,74.73
2019-06-07T02:08:36.129Z,74.62
2019-06-07T02:09:36.666Z,74.73
2019-06-07T02:10:37.229Z,74.52
2019-06-07T02:11:38.799Z,74.93
2019-06-07T02:12:43.381Z,75.13
2019-06-07T02:13:44.278Z,75.03
2019-06-07T02:14:44.798Z,74.62
2019-06-07T02:15:45.319Z,74.62
2019-06-07T02:16:45.807Z,75.13
2019-06-07T02:17:46.420Z,75.03
2019-06-07T02:19:01.203Z,75.03
2019-06-07T02:19:53.519Z,74.96
2019-06-07T02:20:54.007Z,75.48
2019-06-07T02:21:54.528Z,74.93
2019-06-07T02:22:55.021Z,74.66
2019-06-07T02:23:55.568Z,75.07
2019-06-07T02:25:34.488Z,75.23
2019-06-07T02:26:02.523Z,75.37
2019-06-07T02:27:03.013Z,75.07
2019-06-07T02:28:26.402Z,75.23
2019-06-07T02:29:10.029Z,75.23
2019-06-07T02:30:36.928Z,75.13
2019-06-07T02:31:17.015Z,75.16
2019-06-07T02:32:17.518Z,75.07
2019-06-07T02:33:18.007Z,75.16
2019-06-07T02:34:18.573Z,75.16
2019-06-07T02:35:19.047Z,75.07
2019-06-07T02:36:19.605Z,75.07
2019-06-07T02:37:21.486Z,74.86
2019-06-07T02:38:23.162Z,74.86
2019-06-07T02:39:28.756Z,75.07
2019-06-07T02:40:37.215Z,74.76
2019-06-07T02:41:40.435Z,75.07
2019-06-07T02:42:42.835Z,75.27
2019-06-07T02:43:43.562Z,74.76
2019-06-07T02:44:44.089Z,74.86
2019-06-07T02:45:44.574Z,75.16
2019-06-07T02:46:49.437Z,75.16
2019-06-07T02:47:50.392Z,75.27
2019-06-07T02:48:50.913Z,75.16
2019-06-07T02:49:51.422Z,75.07
2019-06-07T02:50:51.964Z,75.16
2019-06-07T02:51:52.463Z,75.27
2019-06-07T02:52:52.986Z,75.27
2019-06-07T02:53:53.468Z,75.07
2019-06-07T02:54:53.942Z,75.20
2019-06-07T02:56:35.325Z,75.07
2019-06-07T02:57:00.932Z,75.27
2019-06-07T02:58:01.462Z,74.96
2019-06-07T02:59:02.077Z,75.16
2019-06-07T03:00:17.105Z,75.27
2019-06-07T03:01:09.945Z,75.37
2019-06-07T03:02:10.688Z,75.27
2019-06-07T03:03:11.202Z,75.31
2019-06-07T03:04:11.708Z,75.16
2019-06-07T03:05:12.240Z,75.27
2019-06-07T03:06:12.742Z,75.48
2019-06-07T03:07:13.213Z,75.27
2019-06-07T03:08:13.806Z,75.00
2019-06-07T03:09:14.293Z,75.31
2019-06-07T03:10:14.806Z,75.41
2019-06-07T03:11:15.337Z,75.20
2019-06-07T03:12:15.845Z,75.51
2019-06-07T03:13:16.341Z,75.31
2019-06-07T03:14:16.846Z,75.20
2019-06-07T03:15:32.971Z,75.20
2019-06-07T03:16:23.801Z,75.20
2019-06-07T03:17:24.320Z,75.10
2019-06-07T03:18:24.805Z,75.20
2019-06-07T03:19:26.387Z,75.41
2019-06-07T03:20:27.513Z,74.79
2019-06-07T03:21:31.496Z,75.61
2019-06-07T03:22:35.133Z,75.41
2019-06-07T03:23:39.176Z,75.00
2019-06-07T03:24:42.303Z,75.51
2019-06-07T03:25:44.564Z,75.41
2019-06-07T03:27:32.231Z,75.41
2019-06-07T03:27:51.481Z,75.20
2019-06-07T03:28:51.970Z,75.61
2019-06-07T03:29:52.443Z,75.31
2019-06-07T03:31:02.377Z,75.41
2019-06-07T03:31:59.409Z,75.71
2019-06-07T03:33:01.889Z,75.71
2019-06-07T03:34:02.707Z,75.41
2019-06-07T03:35:05.180Z,75.51
2019-06-07T03:36:22.923Z,75.51
2019-06-07T03:37:19.767Z,75.41
2019-06-07T03:38:20.242Z,75.61
2019-06-07T03:39:21.726Z,75.41
2019-06-07T03:40:22.204Z,75.61
2019-06-07T03:41:23.684Z,75.51
2019-06-07T03:42:24.163Z,75.71
2019-06-07T03:43:27.286Z,75.41
2019-06-07T03:44:32.126Z,75.31
2019-06-07T03:45:40.124Z,75.71
2019-06-07T03:46:41.993Z,75.71
2019-06-07T03:47:43.585Z,75.82
2019-06-07T03:48:44.078Z,75.31
2019-06-07T03:49:45.563Z,75.41
2019-06-07T03:50:46.250Z,75.71
2019-06-07T03:53:03.868Z,75.71
2019-06-07T03:54:12.284Z,75.71
2019-06-07T03:55:12.758Z,75.71
2019-06-07T03:56:15.786Z,75.71
2019-06-07T03:57:16.513Z,75.71
2019-06-07T03:58:41.177Z,75.71
2019-06-07T03:59:25.479Z,74.86
2019-06-07T04:00:29.789Z,75.68
2019-06-07T04:01:34.870Z,74.96
2019-06-07T04:02:41.694Z,75.16
2019-06-07T04:03:50.798Z,75.16
2019-06-07T04:04:49.558Z,75.37
2019-06-07T04:05:51.060Z,75.37
2019-06-07T04:06:51.569Z,75.27
2019-06-07T04:07:52.063Z,75.48
2019-06-07T04:08:52.570Z,75.37
2019-06-07T04:09:53.047Z,75.16
2019-06-07T04:11:00.264Z,75.16
2019-06-07T04:11:59.984Z,75.16
2019-06-07T04:13:00.449Z,74.83
2019-06-07T04:14:00.934Z,75.03
2019-06-07T04:15:01.408Z,75.23
2019-06-07T04:16:01.901Z,75.03
2019-06-07T04:17:02.443Z,75.03
2019-06-07T04:18:04.101Z,75.23
2019-06-07T04:19:04.688Z,75.44
2019-06-07T04:20:05.202Z,75.44
2019-06-07T04:21:05.679Z,75.57
2019-06-07T04:22:06.167Z,75.44
2019-06-07T04:23:27.205Z,75.64
2019-06-07T04:24:13.159Z,75.44
2019-06-07T04:25:14.631Z,75.54
2019-06-07T04:26:15.143Z,75.23
2019-06-07T04:27:15.752Z,75.54
2019-06-07T04:28:16.212Z,75.54
2019-06-07T04:29:36.986Z,75.10
2019-06-07T04:30:23.184Z,74.99
2019-06-07T04:31:24.656Z,75.10
2019-06-07T04:32:25.129Z,75.20
2019-06-07T04:33:28.787Z,75.20
2019-06-07T04:34:32.012Z,74.90
2019-06-07T04:35:37.137Z,74.69
2019-06-07T04:36:54.815Z,75.30
2019-06-07T04:37:47.066Z,74.69
2019-06-07T04:38:47.559Z,74.69
2019-06-07T04:39:48.073Z,74.99
2019-06-07T04:40:48.555Z,74.96
2019-06-07T04:41:49.043Z,75.06
2019-06-07T04:42:49.527Z,75.06
2019-06-07T04:43:50.041Z,74.86
2019-06-07T04:44:50.527Z,74.99
2019-06-07T04:45:51.543Z,74.86
2019-06-07T04:46:52.121Z,74.65
2019-06-07T04:47:52.594Z,74.96
2019-06-07T04:48:53.094Z,74.86
2019-06-07T04:49:53.585Z,74.76
2019-06-07T04:50:54.053Z,74.76
2019-06-07T04:51:54.539Z,74.52
2019-06-07T04:52:55.049Z,74.45
2019-06-07T04:53:55.657Z,74.11
2019-06-07T04:54:56.133Z,74.32
2019-06-07T04:55:56.637Z,74.62
2019-06-07T04:56:57.174Z,74.52
2019-06-07T04:57:57.643Z,74.32
2019-06-07T04:58:58.148Z,74.41
2019-06-07T05:00:12.953Z,74.21
2019-06-07T05:01:05.087Z,74.48
2019-06-07T05:02:05.551Z,74.48
2019-06-07T05:03:06.023Z,73.97
2019-06-07T05:04:06.533Z,73.97
2019-06-07T05:05:06.998Z,73.97
2019-06-07T05:06:07.488Z,73.97
2019-06-07T05:07:07.958Z,74.38
2019-06-07T05:08:27.108Z,74.69
2019-06-07T05:09:14.913Z,74.76
2019-06-07T05:10:15.411Z,74.65
2019-06-07T05:11:15.881Z,73.97
2019-06-07T05:12:16.349Z,74.18
2019-06-07T05:13:16.868Z,74.76
2019-06-07T05:14:17.365Z,74.04
2019-06-07T05:15:17.840Z,74.35
2019-06-07T05:16:18.303Z,74.45
2019-06-07T05:17:18.768Z,74.15
2019-06-07T05:18:19.267Z,74.45
2019-06-07T05:19:19.760Z,74.11
2019-06-07T05:20:20.239Z,74.41
2019-06-07T05:21:20.725Z,74.11
2019-06-07T05:22:21.231Z,74.21
2019-06-07T05:23:59.937Z,73.91
2019-06-07T05:24:28.178Z,73.91
2019-06-07T05:25:31.630Z,73.80
2019-06-07T05:26:38.509Z,73.70
2019-06-07T05:27:46.322Z,74.21
2019-06-07T05:28:46.674Z,73.91
2019-06-07T05:30:08.893Z,73.87
2019-06-07T05:31:05.302Z,73.87
2019-06-07T05:32:00.059Z,73.67
2019-06-07T05:33:00.544Z,73.67
2019-06-07T05:34:01.035Z,73.77
2019-06-07T05:35:01.572Z,73.67
2019-06-07T05:36:02.059Z,73.67
2019-06-07T05:37:11.643Z,73.67
2019-06-07T05:38:09.043Z,73.63
2019-06-07T05:39:09.587Z,73.97
2019-06-07T05:40:10.082Z,73.83
2019-06-07T05:41:10.582Z,73.63
2019-06-07T05:42:11.251Z,73.83
2019-06-07T05:43:11.879Z,73.97
2019-06-07T05:44:14.819Z,73.87
2019-06-07T05:45:15.654Z,73.74
2019-06-07T05:46:16.144Z,73.83
2019-06-07T05:47:16.660Z,73.83
2019-06-07T05:48:17.149Z,73.74
2019-06-07T05:49:18.726Z,73.83
2019-06-07T05:50:39.001Z,73.53
2019-06-07T05:51:25.738Z,73.53
2019-06-07T05:52:27.281Z,73.19
2019-06-07T05:53:27.778Z,73.19
2019-06-07T05:54:28.394Z,73.22
2019-06-07T05:55:28.923Z,73.19
2019-06-07T05:56:29.414Z,73.29
2019-06-07T05:57:29.897Z,73.29
2019-06-07T05:58:30.443Z,73.29
2019-06-07T05:59:30.911Z,73.50
2019-06-07T06:00:31.444Z,73.39
2019-06-07T06:01:58.935Z,73.29
2019-06-07T06:02:59.004Z,73.19
2019-06-07T06:03:48.011Z,73.39
2019-06-07T06:04:49.712Z,73.50
2019-06-07T06:05:55.278Z,73.19
2019-06-07T06:08:13.331Z,72.96
2019-06-07T06:09:14.364Z,73.26
2019-06-07T06:10:15.003Z,73.66
2019-06-07T06:11:15.600Z,73.26
2019-06-07T06:12:33.449Z,73.26
2019-06-07T06:13:22.558Z,73.06
2019-06-07T06:14:25.244Z,73.16
2019-06-07T06:15:41.612Z,73.06
2019-06-07T06:16:32.189Z,72.96
2019-06-07T06:17:32.729Z,73.12
2019-06-07T06:18:33.215Z,73.26
2019-06-07T06:21:19.408Z,73.33
2019-06-07T06:22:03.314Z,73.33
2019-06-07T06:23:03.885Z,73.22
2019-06-07T06:24:04.392Z,73.12
2019-06-07T06:25:33.854Z,73.02
2019-06-07T06:26:11.482Z,73.12
2019-06-07T06:27:28.411Z,73.12
2019-06-07T06:28:18.433Z,72.61
2019-06-07T06:29:18.889Z,72.92
2019-06-07T06:30:19.468Z,72.82
2019-06-07T06:31:19.938Z,72.92
2019-06-07T06:33:33.682Z,72.78
2019-06-07T06:34:33.398Z,72.78
2019-06-07T06:35:33.890Z,72.68
2019-06-07T06:36:34.429Z,72.89
2019-06-07T06:37:34.878Z,72.55
2019-06-07T06:38:35.404Z,72.48
2019-06-07T06:39:37.036Z,72.08
2019-06-07T06:40:38.905Z,72.08
2019-06-07T06:41:49.978Z,72.34
2019-06-07T06:42:49.015Z,72.45
2019-06-07T06:43:52.572Z,72.55
2019-06-07T06:44:54.172Z,72.34
2019-06-07T06:45:54.958Z,72.85
2019-06-07T06:46:58.080Z,72.14
2019-06-07T06:47:59.129Z,72.96
2019-06-07T06:48:59.616Z,72.55
2019-06-07T06:50:00.171Z,72.52
2019-06-07T06:51:00.643Z,72.61
2019-06-07T06:52:01.205Z,72.01
2019-06-07T06:53:01.679Z,72.41
2019-06-07T06:54:02.259Z,72.31
2019-06-07T06:55:02.739Z,72.41
2019-06-07T06:56:07.323Z,72.11
2019-06-07T06:57:19.766Z,71.77
2019-06-07T06:58:14.267Z,71.88
2019-06-07T06:59:37.945Z,71.57
2019-06-07T07:00:21.498Z,71.64
2019-06-07T07:01:21.982Z,71.33
2019-06-07T07:02:23.595Z,71.33
2019-06-07T07:03:56.848Z,71.03
2019-06-07T07:04:30.548Z,71.23
2019-06-07T07:05:31.018Z,71.09
2019-06-07T07:06:31.619Z,71.03
2019-06-07T07:07:32.092Z,71.40
2019-06-07T07:08:32.664Z,71.09
2019-06-07T07:09:33.133Z,71.00
2019-06-07T07:10:33.759Z,71.40
2019-06-07T07:11:34.237Z,71.50
2019-06-07T07:12:40.367Z,71.50
2019-06-07T07:13:41.628Z,71.20
2019-06-07T07:14:45.574Z,71.26
2019-06-07T07:15:51.029Z,71.06
2019-06-07T07:16:56.609Z,70.66
2019-06-07T07:18:07.770Z,70.66
2019-06-07T07:19:03.904Z,70.22
2019-06-07T07:20:04.467Z,69.82
2019-06-07T07:21:04.973Z,70.12
2019-06-07T07:22:05.624Z,70.42
2019-06-07T07:23:06.088Z,70.32
2019-06-07T07:24:21.028Z,70.29
2019-06-07T07:25:13.221Z,69.78
2019-06-07T07:26:13.833Z,69.89
2019-06-07T07:27:14.368Z,69.48
2019-06-07T07:28:14.971Z,69.18
2019-06-07T07:29:15.450Z,69.28
2019-06-07T07:30:36.183Z,69.08
2019-06-07T07:31:22.623Z,68.33
2019-06-07T07:32:23.194Z,68.44
2019-06-07T07:33:23.704Z,68.84
2019-06-07T07:34:35.366Z,68.84
2019-06-07T07:35:37.388Z,69.11
2019-06-07T07:36:39.908Z,68.71
2019-06-07T07:37:40.574Z,68.71
2019-06-07T07:38:41.160Z,67.90
2019-06-07T07:39:41.637Z,68.01
2019-06-07T07:41:08.958Z,68.10
2019-06-07T07:42:13.738Z,68.07
2019-06-07T07:42:56.776Z,68.57
2019-06-07T07:44:05.756Z,67.97
2019-06-07T07:45:03.933Z,68.17
2019-06-07T07:46:27.142Z,68.37
2019-06-07T07:47:11.161Z,67.47
2019-06-07T07:48:17.522Z,67.63
2019-06-07T07:49:18.204Z,67.54
2019-06-07T07:50:18.845Z,67.23
2019-06-07T07:51:19.483Z,67.63
2019-06-07T07:52:19.973Z,67.63
2019-06-07T07:53:20.728Z,66.33
2019-06-07T07:54:21.261Z,66.93
2019-06-07T07:55:21.998Z,66.42
2019-06-07T07:56:22.545Z,66.53
2019-06-07T07:57:23.173Z,65.99
2019-06-07T07:58:23.676Z,65.99
2019-06-07T07:59:41.308Z,66.09
2019-06-07T08:01:39.433Z,65.46
2019-06-07T08:02:39.915Z,65.69
2019-06-07T08:03:40.514Z,65.36
2019-06-07T08:05:13.865Z,65.26
2019-06-07T08:05:48.996Z,65.66
2019-06-07T08:06:53.339Z,65.39
2019-06-07T08:07:59.789Z,65.86
2019-06-07T08:09:01.743Z,65.46
2019-06-07T08:10:04.119Z,65.39
2019-06-07T08:11:05.240Z,65.26
2019-06-07T08:12:05.735Z,64.86
2019-06-07T08:13:23.788Z,64.75
2019-06-07T08:14:12.880Z,64.75
2019-06-07T08:15:13.453Z,65.26
2019-06-07T08:16:16.496Z,64.75
2019-06-07T08:17:19.153Z,63.92
2019-06-07T08:18:19.680Z,63.82
2019-06-07T08:19:22.298Z,63.51
2019-06-07T08:20:22.778Z,63.18
2019-06-07T08:21:26.716Z,63.21
2019-06-07T08:22:27.698Z,63.51
2019-06-07T08:23:28.370Z,63.51
2019-06-07T08:24:28.956Z,63.71
2019-06-07T08:25:29.603Z,63.31
2019-06-07T08:26:30.108Z,62.78
2019-06-07T08:27:30.828Z,62.98
2019-06-07T08:28:31.309Z,62.27
2019-06-07T08:29:44.521Z,61.74
2019-06-07T08:31:03.670Z,61.94
2019-06-07T08:31:44.989Z,62.24
2019-06-07T08:32:45.473Z,62.27
2019-06-07T08:33:46.099Z,62.38
2019-06-07T08:34:49.081Z,62.27
2019-06-07T08:37:02.023Z,61.87
2019-06-07T08:39:09.280Z,61.44
2019-06-07T08:40:09.893Z,62.05
2019-06-07T08:41:12.610Z,61.94
2019-06-07T08:42:18.027Z,61.54
2019-06-07T08:43:21.185Z,61.11
2019-06-07T08:44:25.509Z,61.11
2019-06-07T08:45:26.219Z,60.61
2019-06-07T08:46:33.417Z,60.81
2019-06-07T08:47:33.919Z,60.81
2019-06-07T08:48:34.503Z,60.71
2019-06-07T08:49:35.013Z,60.31
2019-06-07T08:50:35.554Z,61.21
2019-06-07T08:51:36.028Z,62.02
2019-06-07T08:52:37.573Z,61.71
2019-06-07T08:53:38.063Z,61.91
2019-06-07T08:54:39.673Z,62.02
2019-06-07T08:55:40.170Z,61.91
2019-06-07T08:58:02.342Z,62.12
2019-06-07T08:59:10.809Z,62.22
2019-06-07T09:00:42.335Z,61.71
2019-06-07T09:01:15.534Z,61.71
2019-06-07T09:02:23.729Z,61.82
2019-06-07T09:03:22.505Z,61.71
2019-06-07T09:04:25.104Z,61.91
2019-06-07T09:05:25.578Z,62.12
2019-06-07T09:07:01.957Z,61.88
2019-06-07T09:07:35.618Z,61.71
2019-06-07T09:08:36.094Z,60.78
2019-06-07T09:09:59.277Z,61.15
2019-06-07T09:11:05.137Z,60.55
2019-06-07T09:12:10.799Z,59.85
2019-06-07T09:13:12.201Z,60.05
2019-06-07T09:14:19.333Z,59.85
2019-06-07T09:15:23.346Z,60.22
2019-06-07T09:16:25.283Z,59.92
2019-06-07T09:17:25.834Z,59.82
2019-06-07T09:18:44.810Z,60.02
2019-06-07T09:19:32.920Z,60.02
2019-06-07T09:20:36.859Z,59.92
2019-06-07T09:21:39.853Z,59.92
2019-06-07T09:22:40.373Z,59.82
2019-06-07T09:23:40.881Z,59.72
2019-06-07T09:24:41.379Z,60.22
2019-06-07T09:25:56.521Z,59.92
2019-06-07T09:26:50.418Z,60.32
2019-06-07T09:27:50.940Z,60.42
2019-06-07T09:29:01.286Z,60.62
2019-06-07T09:30:11.718Z,60.15
2019-06-07T09:31:12.834Z,60.05
2019-06-07T09:32:18.078Z,60.25
2019-06-07T09:33:19.179Z,60.45
2019-06-07T09:34:28.366Z,61.35
2019-06-07T09:35:28.867Z,60.45
2019-06-07T09:36:31.438Z,61.25
2019-06-07T09:38:04.412Z,60.05
2019-06-07T09:38:38.394Z,60.15
2019-06-07T09:39:38.859Z,61.25
2019-06-07T09:40:39.458Z,60.05
2019-06-07T09:41:49.406Z,59.95
2019-06-07T09:42:46.469Z,60.15
2019-06-07T09:44:01.479Z,60.42
2019-06-07T09:44:57.027Z,59.72
2019-06-07T09:46:09.002Z,60.32
2019-06-07T09:47:30.391Z,60.25
2019-06-07T09:48:23.882Z,59.52
2019-06-07T09:49:32.233Z,60.12
2019-06-07T09:50:27.771Z,59.92
2019-06-07T09:51:28.237Z,59.92
2019-06-07T09:52:28.740Z,59.82
2019-06-07T09:53:29.219Z,59.92
2019-06-07T09:55:04.102Z,60.22
2019-06-07T09:55:36.178Z,60.02
2019-06-07T09:56:36.654Z,59.89
2019-06-07T09:57:39.238Z,60.62
2019-06-07T09:58:55.250Z,59.49
2019-06-07T09:59:46.832Z,59.69
2019-06-07T10:00:47.479Z,59.99
2019-06-07T10:01:48.038Z,59.89
2019-06-07T10:02:49.898Z,59.89
2019-06-07T10:03:50.410Z,59.59
2019-06-07T10:04:50.855Z,59.99
2019-06-07T10:05:51.353Z,59.39
2019-06-07T10:06:51.839Z,60.27
2019-06-07T10:08:09.762Z,59.96
2019-06-07T10:10:04.770Z,58.56
2019-06-07T10:10:22.327Z,59.16
2019-06-07T10:11:11.810Z,58.76
2019-06-07T10:12:12.299Z,58.86
2019-06-07T10:13:13.933Z,58.66
2019-06-07T10:14:14.418Z,59.56
2019-06-07T10:15:15.018Z,59.46
2019-06-07T10:16:15.503Z,59.46
2019-06-07T10:17:16.159Z,60.29
2019-06-07T10:18:16.660Z,59.56
2019-06-07T10:19:25.891Z,59.86
2019-06-07T10:20:26.394Z,59.86
2019-06-07T10:21:43.841Z,59.16
2019-06-07T10:22:44.330Z,59.23
2019-06-07T10:23:47.030Z,59.36
2019-06-07T10:24:47.513Z,59.23
2019-06-07T10:25:48.159Z,59.03
2019-06-07T10:26:48.640Z,58.20
2019-06-07T10:27:49.152Z,58.00
2019-06-07T10:28:53.324Z,58.00
2019-06-07T10:29:54.105Z,57.90
2019-06-07T10:30:55.699Z,57.87
2019-06-07T10:31:56.259Z,57.70
2019-06-07T10:33:12.393Z,58.11
2019-06-07T10:34:12.899Z,58.18
2019-06-07T10:35:16.374Z,57.98
2019-06-07T10:37:34.379Z,58.07
2019-06-07T10:38:36.033Z,57.37
2019-06-07T10:39:48.013Z,56.95
2019-06-07T10:40:43.019Z,56.85
2019-06-07T10:41:43.673Z,57.37
2019-06-07T10:42:44.187Z,56.85
2019-06-07T10:43:44.689Z,57.07
2019-06-07T10:44:45.339Z,56.98
2019-06-07T10:45:45.860Z,56.98
2019-06-07T10:46:46.504Z,57.15
2019-06-07T10:47:47.025Z,56.95
2019-06-07T10:48:47.579Z,57.24
2019-06-07T10:49:48.089Z,57.45
2019-06-07T10:50:48.658Z,57.45
2019-06-07T10:51:49.179Z,57.35
2019-06-07T10:52:49.700Z,57.15
2019-06-07T10:53:50.219Z,56.67
2019-06-07T10:54:51.858Z,56.67
2019-06-07T10:55:52.378Z,56.65
2019-06-07T10:56:52.857Z,56.45
2019-06-07T10:58:02.777Z,57.05
2019-06-07T10:59:05.095Z,57.05
2019-06-07T11:00:07.046Z,56.95
2019-06-07T11:01:09.390Z,56.67
2019-06-07T11:02:09.933Z,56.65
2019-06-07T11:03:11.855Z,56.74
2019-06-07T11:04:13.721Z,56.65
2019-06-07T11:05:14.608Z,56.74
2019-06-07T11:06:29.946Z,56.65
2019-06-07T11:07:30.416Z,56.95
2019-06-07T11:08:31.016Z,56.22
2019-06-07T11:09:31.515Z,56.12
2019-06-07T11:10:33.113Z,55.72
2019-06-07T11:11:33.598Z,56.32
2019-06-07T11:12:40.959Z,55.62
2019-06-07T11:13:41.459Z,56.52
2019-06-07T11:14:41.940Z,56.42
2019-06-07T11:15:42.425Z,55.62
2019-06-07T11:16:42.902Z,55.62
2019-06-07T11:17:43.379Z,56.52
2019-06-07T11:18:46.039Z,56.39
2019-06-07T11:19:46.521Z,57.02
2019-06-07T11:20:47.134Z,56.92
2019-06-07T11:21:47.610Z,56.92
2019-06-07T11:22:48.119Z,56.72
2019-06-07T11:23:48.590Z,56.62
2019-06-07T11:24:49.289Z,57.52
2019-06-07T11:25:49.839Z,56.82
2019-06-07T11:26:52.485Z,57.12
2019-06-07T11:27:52.953Z,57.22
2019-06-07T11:28:53.459Z,57.32
2019-06-07T11:29:53.959Z,57.52
2019-06-07T11:32:12.601Z,57.42
2019-06-07T11:33:16.364Z,57.12
2019-06-07T11:34:17.113Z,57.29
2019-06-07T11:35:19.016Z,57.50
2019-06-07T11:36:19.648Z,56.70
2019-06-07T11:37:20.118Z,56.89
2019-06-07T11:38:20.590Z,57.50
2019-06-07T11:39:21.093Z,56.27
2019-06-07T11:40:34.517Z,56.96
2019-06-07T11:41:28.039Z,56.07
2019-06-07T11:42:28.557Z,56.27
2019-06-07T11:43:29.079Z,56.27
2019-06-07T11:44:29.600Z,56.24
2019-06-07T11:45:30.119Z,55.77
2019-06-07T11:46:30.638Z,56.07
2019-06-07T11:47:31.172Z,56.96
2019-06-07T11:48:31.802Z,56.67
2019-06-07T11:49:32.318Z,56.46
2019-06-07T11:50:32.838Z,56.87
2019-06-07T11:51:33.358Z,56.07
2019-06-07T11:52:33.878Z,55.74
2019-06-07T11:53:34.389Z,55.64
2019-06-07T11:54:35.043Z,55.94
2019-06-07T11:55:35.543Z,55.74
2019-06-07T11:56:36.169Z,55.62
2019-06-07T11:57:36.653Z,55.81
2019-06-07T11:58:37.280Z,55.71
2019-06-07T11:59:37.774Z,55.69
2019-06-07T12:00:39.413Z,55.58
2019-06-07T12:01:39.967Z,55.88
2019-06-07T12:02:41.679Z,55.19
2019-06-07T12:03:42.201Z,55.06
2019-06-07T12:04:42.918Z,55.04
2019-06-07T12:05:43.416Z,55.33
2019-06-07T12:06:44.078Z,54.14
2019-06-07T12:07:44.600Z,54.24
2019-06-07T12:08:49.483Z,54.81
2019-06-07T12:09:56.315Z,54.11
2019-06-07T12:10:56.598Z,53.99
2019-06-07T12:11:57.074Z,54.19
2019-06-07T12:12:57.735Z,54.06
2019-06-07T12:13:58.255Z,54.73
2019-06-07T12:15:05.921Z,54.41
2019-06-07T12:16:06.462Z,54.38
2019-06-07T12:17:09.021Z,54.18
2019-06-07T12:18:09.539Z,53.96
2019-06-07T12:19:11.803Z,54.13
2019-06-07T12:20:14.590Z,53.51
2019-06-07T12:21:18.128Z,53.41
2019-06-07T12:22:19.931Z,53.66
2019-06-07T12:23:21.658Z,52.34
2019-06-07T12:24:22.189Z,52.73
2019-06-07T12:25:25.258Z,51.92
2019-06-07T12:26:25.819Z,51.50
2019-06-07T12:27:26.337Z,50.78
2019-06-07T12:28:26.860Z,50.48
2019-06-07T12:29:27.409Z,50.06
2019-06-07T12:30:28.246Z,49.87
2019-06-07T12:31:28.792Z,49.74
2019-06-07T12:32:29.273Z,49.35
2019-06-07T12:33:29.761Z,49.02
2019-06-07T12:34:30.265Z,48.53
2019-06-07T12:35:31.879Z,49.13
2019-06-07T12:36:32.363Z,47.72
2019-06-07T12:37:43.818Z,48.31
2019-06-07T12:38:39.848Z,47.54
2019-06-07T12:39:40.313Z,47.96
2019-06-07T12:40:40.798Z,48.60
2019-06-07T12:41:41.275Z,49.52
2019-06-07T12:42:41.853Z,48.82
2019-06-07T12:43:42.698Z,48.70
2019-06-07T12:44:43.213Z,48.90
2019-06-07T12:45:45.523Z,48.11
2019-06-07T12:46:46.229Z,48.11
2019-06-07T12:47:46.698Z,48.90
2019-06-07T12:48:47.195Z,48.90
2019-06-07T12:49:47.734Z,48.80
2019-06-07T12:50:48.217Z,48.60
2019-06-07T12:51:56.339Z,48.68
2019-06-07T12:52:56.814Z,48.18
2019-06-07T12:53:57.328Z,48.38
2019-06-07T12:54:57.818Z,48.36
2019-06-07T12:56:00.279Z,48.16
2019-06-07T12:57:00.900Z,47.47
2019-06-07T12:58:01.379Z,47.15
2019-06-07T12:59:01.890Z,46.33
2019-06-07T13:00:02.964Z,46.70
2019-06-07T13:01:03.520Z,45.82
2019-06-07T13:02:04.008Z,44.91
2019-06-07T13:03:04.503Z,44.79
2019-06-07T13:04:04.994Z,44.98
2019-06-07T13:05:05.561Z,44.98
2019-06-07T13:06:06.069Z,44.67
2019-06-07T13:07:06.561Z,44.76
2019-06-07T13:08:07.069Z,45.18
2019-06-07T13:09:07.574Z,44.89
2019-06-07T13:10:08.053Z,44.89
2019-06-07T13:11:17.375Z,43.29
2019-06-07T13:12:15.519Z,43.78
2019-06-07T13:13:16.093Z,43.19
2019-06-07T13:14:17.688Z,42.97
2019-06-07T13:15:20.706Z,42.77
2019-06-07T13:16:24.223Z,43.17
2019-06-07T13:17:24.840Z,42.85
2019-06-07T13:18:25.371Z,43.07
2019-06-07T13:19:28.498Z,42.87
2019-06-07T13:20:29.121Z,43.84
2019-06-07T13:21:30.719Z,42.76
2019-06-07T13:22:31.261Z,43.54
2019-06-07T13:23:31.980Z,43.54
2019-06-07T13:24:32.539Z,42.95
2019-06-07T13:25:46.622Z,42.34
2019-06-07T13:26:47.280Z,42.93
2019-06-07T13:29:04.399Z,42.93
2019-06-07T13:30:09.727Z,42.73
2019-06-07T13:31:11.382Z,42.93
2019-06-07T13:32:11.907Z,42.71
2019-06-07T13:33:12.433Z,42.61
2019-06-07T13:34:12.939Z,42.61
2019-06-07T13:35:16.453Z,42.30